Time;durP1;ratioP1;P1;durP2;ratioP2;P2;SDS_P1;SDS_P2;PMS_P1;PMS_P2;Temp;Humidity;BMP_temperature;BMP_pressure;BME280_temperature;BME280_humidity;BME280_pressure;Samples;Min_cycle;Max_cycle;Signal;HPM_P1;HPM_P2
2023/09/20 00:00:11;;;;;;;4.80;1.80;;;18.90;99.90;;;;;;4175810;28;20484;-67
2023/09/20 00:02:12;;;;;;;5.53;1.67;;;18.90;99.90;;;;;;4193104;28;20028;-66
2023/09/20 00:04:13;;;;;;;7.75;1.90;;;18.90;99.90;;;;;;4183544;28;20089;-66
2023/09/20 00:06:13;;;;;;;4.65;1.48;;;18.90;99.90;;;;;;4193971;28;20033;-66
2023/09/20 00:08:14;;;;;;;7.15;1.80;;;18.90;99.90;;;;;;4191280;28;20041;-66
2023/09/20 00:10:15;;;;;;;5.68;1.50;;;18.90;99.90;;;;;;4182612;28;20572;-67
2023/09/20 00:12:15;;;;;;;1.75;1.23;;;18.90;99.90;;;;;;4180969;28;20037;-66
2023/09/20 00:14:16;;;;;;;4.50;1.65;;;18.90;99.90;;;;;;4185316;28;20168;-66
2023/09/20 00:16:17;;;;;;;6.32;1.83;;;18.80;99.90;;;;;;4179278;28;20402;-67
2023/09/20 00:18:19;;;;;;;5.10;1.50;;;18.80;99.90;;;;;;4181176;28;20474;-66
2023/09/20 00:20:20;;;;;;;6.05;1.40;;;18.80;99.90;;;;;;4183056;28;20033;-67
2023/09/20 00:22:20;;;;;;;3.42;1.65;;;18.80;99.90;;;;;;4176515;28;20402;-66
2023/09/20 00:24:21;;;;;;;3.78;1.40;;;18.80;99.90;;;;;;4176541;28;20037;-68
2023/09/20 00:26:22;;;;;;;3.97;1.60;;;18.80;99.90;;;;;;4175819;28;20102;-67
2023/09/20 00:28:23;;;;;;;5.85;1.98;;;18.80;99.90;;;;;;4182140;28;20032;-66
2023/09/20 00:30:23;;;;;;;4.07;1.73;;;18.80;99.90;;;;;;4184892;28;20402;-66
2023/09/20 00:32:24;;;;;;;7.82;1.98;;;18.80;99.90;;;;;;4193790;28;20037;-67
2023/09/20 00:34:26;;;;;;;5.63;1.63;;;18.80;99.90;;;;;;4187108;28;20505;-66
2023/09/20 00:36:27;;;;;;;4.13;1.60;;;18.70;99.90;;;;;;4193734;28;20036;-66
2023/09/20 00:38:27;;;;;;;2.75;1.30;;;18.80;99.90;;;;;;4182740;28;20057;-67
2023/09/20 00:40:28;;;;;;;3.67;1.63;;;18.80;99.90;;;;;;4180646;28;20112;-65
2023/09/20 00:42:31;;;;;;;4.30;1.48;;;18.80;99.90;;;;;;4192114;28;20440;-66
2023/09/20 00:44:32;;;;;;;4.45;1.70;;;18.80;99.90;;;;;;4188926;28;20667;-65
2023/09/20 00:46:32;;;;;;;3.22;1.52;;;18.80;99.90;;;;;;4174156;28;20049;-65
2023/09/20 00:48:34;;;;;;;6.43;1.80;;;18.80;99.90;;;;;;4178667;28;20094;-66
2023/09/20 00:50:35;;;;;;;7.32;1.73;;;18.80;99.90;;;;;;4184503;28;20467;-65
2023/09/20 00:52:39;;;;;;;3.25;1.63;;;18.80;99.90;;;;;;4177195;28;20032;-66
2023/09/20 00:54:43;;;;;;;5.80;1.60;;;18.80;99.90;;;;;;4177931;28;20075;-65
2023/09/20 00:56:44;;;;;;;4.25;1.63;;;18.80;99.90;;;;;;4174312;28;20552;-66
2023/09/20 00:58:45;;;;;;;5.93;1.65;;;18.80;99.90;;;;;;4177665;28;20114;-65
2023/09/20 01:00:47;;;;;;;3.47;1.42;;;18.80;99.90;;;;;;4174767;28;20094;-65
2023/09/20 01:02:55;;;;;;;2.70;1.30;;;18.80;99.90;;;;;;4177680;28;20394;-66
2023/09/20 01:04:58;;;;;;;3.40;1.52;;;18.80;99.90;;;;;;4188830;28;20543;-66
2023/09/20 01:06:59;;;;;;;6.22;1.90;;;18.80;99.90;;;;;;4192005;28;20399;-66
2023/09/20 01:08:59;;;;;;;3.75;1.63;;;18.70;99.90;;;;;;4186634;28;20157;-66
2023/09/20 01:11:01;;;;;;;3.63;1.90;;;18.80;99.90;;;;;;4167184;28;20132;-65
2023/09/20 01:13:03;;;;;;;6.90;1.70;;;18.80;99.90;;;;;;4184404;28;20159;-66
2023/09/20 01:15:05;;;;;;;3.90;1.73;;;18.70;99.90;;;;;;4176107;28;20037;-66
2023/09/20 01:17:11;;;;;;;5.38;1.48;;;18.80;99.90;;;;;;4183153;28;20021;-65
2023/09/20 01:19:11;;;;;;;3.53;1.38;;;18.80;99.90;;;;;;4179070;28;20029;-66
2023/09/20 01:21:12;;;;;;;5.07;1.60;;;18.70;99.90;;;;;;4181970;28;20426;-66
2023/09/20 01:23:13;;;;;;;4.85;2.03;;;18.60;99.90;;;;;;4175318;28;20033;-66
2023/09/20 01:25:35;;;;;;;3.85;1.83;;;18.70;99.90;;;;;;4173654;28;20033;-67
2023/09/20 01:27:38;;;;;;;2.60;1.25;;;18.60;99.90;;;;;;4176908;28;20528;-66
2023/09/20 01:29:39;;;;;;;5.72;1.92;;;18.70;99.90;;;;;;4176763;28;20040;-65
2023/09/20 01:31:40;;;;;;;6.63;1.77;;;18.70;99.90;;;;;;4164025;28;20033;-66
2023/09/20 01:33:41;;;;;;;3.75;1.88;;;18.60;99.90;;;;;;4165610;28;20053;-65
2023/09/20 01:35:45;;;;;;;4.78;1.65;;;18.70;99.90;;;;;;4175261;28;20040;-66
2023/09/20 01:37:45;;;;;;;5.80;1.90;;;18.70;99.90;;;;;;4177201;28;20041;-66
2023/09/20 01:39:46;;;;;;;5.25;1.73;;;18.70;99.90;;;;;;4185329;28;20035;-65
2023/09/20 01:41:47;;;;;;;3.72;1.80;;;18.60;99.90;;;;;;4178839;28;20064;-66
2023/09/20 01:43:48;;;;;;;4.82;1.83;;;18.60;99.90;;;;;;4176632;28;20425;-66
2023/09/20 01:45:48;;;;;;;4.97;1.67;;;18.60;99.90;;;;;;4180672;28;20451;-66
2023/09/20 01:47:51;;;;;;;4.18;1.95;;;18.60;99.90;;;;;;4177385;28;20063;-66
2023/09/20 01:49:52;;;;;;;5.65;1.80;;;18.70;99.90;;;;;;4179332;28;20060;-66
2023/09/20 01:51:53;;;;;;;3.60;1.40;;;18.60;99.90;;;;;;4175581;28;20758;-72
2023/09/20 01:53:54;;;;;;;5.15;1.80;;;18.60;99.90;;;;;;4181139;28;20037;-72
2023/09/20 01:55:57;;;;;;;3.97;1.80;;;18.60;99.90;;;;;;4174358;28;20032;-72
2023/09/20 01:58:06;;;;;;;5.32;1.90;;;18.70;99.90;;;;;;4193094;28;20580;-71
2023/09/20 02:00:50;;;;;;;5.07;1.67;;;18.60;99.90;;;;;;4182159;28;20052;-71
2023/09/20 02:02:31;;;;;;;4.00;1.73;;;18.60;99.90;;;;;;4184237;28;20040;-72
2023/09/20 02:04:31;;;;;;;3.92;1.50;;;18.60;99.90;;;;;;4190871;28;20032;-71
2023/09/20 02:06:32;;;;;;;3.25;1.55;;;18.60;99.90;;;;;;4192563;28;20040;-72
2023/09/20 02:08:34;;;;;;;3.85;1.73;;;18.60;99.90;;;;;;4185070;28;20506;-71
2023/09/20 02:10:39;;;;;;;7.45;1.83;;;18.60;99.90;;;;;;4180167;28;20045;-71
2023/09/20 02:12:43;;;;;;;4.95;1.90;;;18.50;99.90;;;;;;4193160;28;20025;-72
2023/09/20 02:14:46;;;;;;;4.47;1.58;;;18.50;99.90;;;;;;4193054;28;20505;-72
2023/09/20 02:16:47;;;;;;;11.98;1.90;;;18.50;99.90;;;;;;4172398;28;20036;-72
2023/09/20 02:18:48;;;;;;;5.90;1.80;;;18.50;99.90;;;;;;4162248;28;20063;-72
2023/09/20 02:20:49;;;;;;;5.28;1.88;;;18.50;99.90;;;;;;4161997;28;20037;-71
2023/09/20 02:22:51;;;;;;;3.25;1.60;;;18.50;99.90;;;;;;4165617;28;20041;-72
2023/09/20 02:24:52;;;;;;;;;;;18.50;99.90;;;;;;4180001;28;20037;-73
2023/09/20 02:26:53;;;;;;;3.05;1.70;;;18.50;99.90;;;;;;4192486;28;19909;-72
2023/09/20 02:28:54;;;;;;;3.13;1.73;;;18.50;99.90;;;;;;4181352;28;20447;-72
2023/09/20 02:30:54;;;;;;;4.60;1.52;;;18.50;99.90;;;;;;4177833;28;20025;-72
2023/09/20 02:32:59;;;;;;;5.90;1.83;;;18.60;99.90;;;;;;4175792;28;20025;-72
2023/09/20 02:35:03;;;;;;;5.10;1.63;;;18.50;99.90;;;;;;4176696;28;20041;-72
2023/09/20 02:37:04;;;;;;;8.18;1.65;;;18.50;99.90;;;;;;4175848;28;20029;-72
2023/09/20 02:39:06;;;;;;;5.18;1.75;;;18.50;99.90;;;;;;4182151;28;20048;-72
2023/09/20 02:41:07;;;;;;;8.40;1.97;;;18.50;99.90;;;;;;4180592;28;20025;-72
2023/09/20 02:43:08;;;;;;;4.40;1.63;;;18.50;99.90;;;;;;4182479;28;20025;-72
2023/09/20 02:45:10;;;;;;;5.18;1.75;;;18.50;99.90;;;;;;4192846;28;20040;-71
2023/09/20 02:47:11;;;;;;;2.40;1.45;;;18.60;99.90;;;;;;4177318;28;20087;-72
2023/09/20 02:49:12;;;;;;;4.72;1.73;;;18.50;99.90;;;;;;4188115;28;20037;-72
2023/09/20 02:51:13;;;;;;;4.60;1.83;;;18.50;99.90;;;;;;4191141;28;20458;-68
2023/09/20 02:53:14;;;;;;;5.38;1.70;;;18.50;99.90;;;;;;4194487;28;20120;-69
2023/09/20 02:55:17;;;;;;;4.13;1.90;;;18.50;99.90;;;;;;4181291;28;20082;-68
2023/09/20 02:57:17;;;;;;;5.53;1.80;;;18.50;99.90;;;;;;4194937;28;20032;-68
2023/09/20 02:59:20;;;;;;;6.28;1.48;;;18.50;99.90;;;;;;4187799;28;20025;-68
2023/09/20 03:01:20;;;;;;;4.35;1.83;;;18.50;99.90;;;;;;4188525;28;20044;-69
2023/09/20 03:03:23;;;;;;;6.80;1.58;;;18.50;99.90;;;;;;4183638;28;20056;-68
2023/09/20 03:05:31;;;;;;;4.32;1.73;;;18.50;99.90;;;;;;4178140;28;20045;-68
2023/09/20 03:07:32;;;;;;;5.15;1.77;;;18.40;99.90;;;;;;4178988;28;20505;-68
2023/09/20 03:09:36;;;;;;;3.17;1.60;;;18.50;99.90;;;;;;4184937;28;20032;-68
2023/09/20 03:11:37;;;;;;;6.60;1.67;;;18.50;99.90;;;;;;4178704;28;20041;-68
2023/09/20 03:13:38;;;;;;;5.50;1.95;;;18.50;99.90;;;;;;4178849;28;20033;-69
2023/09/20 03:15:44;;;;;;;4.05;1.58;;;18.40;99.90;;;;;;4192948;28;20081;-68
2023/09/20 03:17:45;;;;;;;5.18;1.88;;;18.50;99.90;;;;;;4192303;28;20106;-68
2023/09/20 03:19:52;;;;;;;5.38;1.83;;;18.40;99.90;;;;;;4184881;28;20465;-68
2023/09/20 03:21:53;;;;;;;4.65;2.03;;;18.40;99.90;;;;;;4178251;28;20032;-68
2023/09/20 03:23:55;;;;;;;3.75;1.67;;;18.40;99.90;;;;;;4180587;28;20474;-68
2023/09/20 03:25:56;;;;;;;3.80;1.50;;;18.40;99.90;;;;;;4180138;28;20033;-69
2023/09/20 03:27:56;;;;;;;4.60;1.52;;;18.40;99.90;;;;;;4193760;28;20418;-68
2023/09/20 03:29:57;;;;;;;4.47;1.67;;;18.40;99.90;;;;;;4185867;28;20375;-68
2023/09/20 03:31:58;;;;;;;3.80;1.58;;;18.40;99.90;;;;;;4190482;28;20078;-68
2023/09/20 03:34:03;;;;;;;6.18;1.85;;;18.30;99.90;;;;;;4177115;28;20033;-68
2023/09/20 03:36:15;;;;;;;4.35;1.60;;;18.40;99.90;;;;;;4180831;28;20037;-68
2023/09/20 03:38:15;;;;;;;3.95;1.60;;;18.30;99.90;;;;;;4195246;28;20100;-68
2023/09/20 03:40:21;;;;;;;3.38;1.48;;;18.30;99.90;;;;;;4181691;28;20025;-68
2023/09/20 03:42:21;;;;;;;2.13;1.50;;;18.30;99.90;;;;;;4178210;28;20054;-68
2023/09/20 03:44:22;;;;;;;4.93;1.77;;;18.30;99.90;;;;;;4178476;28;20033;-69
2023/09/20 03:46:25;;;;;;;;;;;18.40;99.90;;;;;;4174192;28;20045;-68
2023/09/20 03:48:25;;;;;;;3.38;1.40;;;18.30;99.90;;;;;;4174426;28;19908;-68
2023/09/20 03:50:26;;;;;;;4.72;1.58;;;18.30;99.90;;;;;;4186176;28;20093;-68
2023/09/20 03:52:27;;;;;;;4.70;1.50;;;18.30;99.90;;;;;;4185206;28;20037;-68
2023/09/20 03:54:29;;;;;;;3.22;1.55;;;18.30;99.90;;;;;;4179142;28;20060;-68
2023/09/20 03:56:29;;;;;;;4.50;1.98;;;18.30;99.90;;;;;;4183771;28;20485;-68
2023/09/20 03:58:30;;;;;;;3.65;1.65;;;18.30;99.90;;;;;;4181599;28;20036;-68
2023/09/20 04:00:32;;;;;;;3.05;1.38;;;18.30;99.90;;;;;;4185397;28;20398;-71
2023/09/20 04:02:34;;;;;;;5.13;1.55;;;18.30;99.90;;;;;;4177513;28;20029;-71
2023/09/20 04:04:35;;;;;;;3.95;1.42;;;18.20;99.90;;;;;;4178493;28;20402;-72
2023/09/20 04:06:36;;;;;;;6.45;1.83;;;18.30;99.90;;;;;;4183629;28;20121;-71
2023/09/20 04:08:37;;;;;;;5.32;1.73;;;18.30;99.90;;;;;;4178074;28;20029;-72
2023/09/20 04:10:37;;;;;;;2.10;1.55;;;18.20;99.90;;;;;;4175526;28;21373;-72
2023/09/20 04:12:38;;;;;;;4.45;1.50;;;18.30;99.90;;;;;;4176260;28;20513;-72
2023/09/20 04:14:41;;;;;;;4.55;1.70;;;18.30;99.90;;;;;;4178165;28;20463;-72
2023/09/20 04:16:42;;;;;;;4.68;1.63;;;18.20;99.90;;;;;;4166804;28;20048;-72
2023/09/20 04:18:44;;;;;;;4.45;1.98;;;18.20;99.90;;;;;;4177852;28;20032;-72
2023/09/20 04:20:46;;;;;;;3.42;1.45;;;18.20;99.90;;;;;;4177828;28;20048;-72
2023/09/20 04:22:49;;;;;;;2.87;1.30;;;18.20;99.90;;;;;;4176017;28;20036;-71
2023/09/20 04:24:50;;;;;;;5.55;1.70;;;18.20;99.90;;;;;;4186733;28;21397;-72
2023/09/20 04:26:50;;;;;;;5.15;1.75;;;18.20;99.90;;;;;;4183944;28;20029;-72
2023/09/20 04:28:51;;;;;;;3.20;1.42;;;18.20;99.90;;;;;;4189752;28;20036;-74
2023/09/20 04:30:52;;;;;;;2.67;1.40;;;18.20;99.90;;;;;;4182379;28;20457;-72
2023/09/20 04:32:55;;;;;;;2.80;1.73;;;18.20;99.90;;;;;;4178105;28;20079;-72
2023/09/20 04:34:56;;;;;;;4.20;1.52;;;18.20;99.90;;;;;;4178128;28;20047;-72
2023/09/20 04:36:57;;;;;;;2.15;1.40;;;18.20;99.90;;;;;;4176869;28;20029;-71
2023/09/20 04:38:57;;;;;;;3.92;1.35;;;18.20;99.90;;;;;;4181761;28;20453;-71
2023/09/20 04:40:59;;;;;;;3.35;1.35;;;18.10;99.90;;;;;;4176983;28;20025;-71
2023/09/20 04:43:00;;;;;;;3.88;1.88;;;18.20;99.90;;;;;;4177859;28;20029;-71
2023/09/20 04:45:01;;;;;;;4.18;1.52;;;18.20;99.90;;;;;;4177664;28;20479;-72
2023/09/20 04:47:01;;;;;;;2.50;1.35;;;18.20;99.90;;;;;;4190656;28;20461;-73
2023/09/20 04:49:06;;;;;;;3.28;1.40;;;18.10;99.90;;;;;;4186317;28;20024;-68
2023/09/20 04:51:09;;;;;;;1.73;1.10;;;18.10;99.90;;;;;;4187366;28;20087;-72
2023/09/20 04:53:10;;;;;;;2.30;1.30;;;18.10;99.90;;;;;;4181235;28;20080;-72
2023/09/20 04:55:10;;;;;;;4.68;1.55;;;18.10;99.90;;;;;;4171283;28;20029;-72
2023/09/20 04:57:14;;;;;;;5.28;1.67;;;18.10;99.90;;;;;;4173088;28;20399;-73
2023/09/20 04:59:15;;;;;;;6.53;1.98;;;18.00;99.90;;;;;;4180812;28;20029;-73
2023/09/20 05:01:17;;;;;;;3.53;1.60;;;18.00;99.90;;;;;;4189221;28;20029;-73
2023/09/20 05:03:19;;;;;;;3.20;1.60;;;18.00;99.90;;;;;;4193726;28;20078;-72
2023/09/20 05:05:20;;;;;;;4.38;1.65;;;18.00;99.90;;;;;;4191070;28;20259;-71
2023/09/20 05:07:26;;;;;;;3.25;1.63;;;18.00;99.90;;;;;;4190911;28;20040;-72
2023/09/20 05:09:27;;;;;;;2.50;1.30;;;18.00;99.90;;;;;;4185690;28;20033;-70
2023/09/20 05:11:28;;;;;;;7.97;2.00;;;18.00;99.90;;;;;;4188190;28;20028;-65
2023/09/20 05:13:28;;;;;;;2.88;1.63;;;17.90;99.90;;;;;;4178781;28;20036;-65
2023/09/20 05:15:29;;;;;;;3.30;1.27;;;18.00;99.90;;;;;;4184411;28;20606;-67
2023/09/20 05:17:30;;;;;;;5.18;1.85;;;18.00;99.90;;;;;;4162810;28;20090;-65
2023/09/20 05:19:31;;;;;;;4.13;1.67;;;18.00;99.90;;;;;;4173129;28;20047;-64
2023/09/20 05:21:32;;;;;;;3.85;1.40;;;18.00;99.90;;;;;;4181908;28;20045;-67
2023/09/20 05:23:34;;;;;;;3.08;1.60;;;18.00;99.90;;;;;;4178188;28;20037;-65
2023/09/20 05:25:35;;;;;;;4.00;1.73;;;18.00;99.90;;;;;;4180806;28;20106;-65
2023/09/20 05:27:37;;;;;;;3.50;1.60;;;18.00;99.90;;;;;;4180504;28;20033;-64
2023/09/20 05:29:37;;;;;;;4.03;1.88;;;18.00;99.90;;;;;;4168775;28;22392;-64
2023/09/20 05:31:43;;;;;;;3.50;1.77;;;17.90;99.90;;;;;;4177236;28;20025;-72
2023/09/20 05:33:43;;;;;;;4.13;1.95;;;17.90;99.90;;;;;;4166445;28;20044;-73
2023/09/20 05:35:45;;;;;;;4.30;1.83;;;18.00;99.90;;;;;;4167375;28;20034;-73
2023/09/20 05:37:45;;;;;;;5.18;1.67;;;17.90;99.90;;;;;;4159966;28;20033;-72
2023/09/20 05:39:48;;;;;;;5.53;2.03;;;17.90;99.90;;;;;;4163134;28;20034;-72
2023/09/20 05:41:48;;;;;;;3.22;1.60;;;17.90;99.90;;;;;;4186241;28;20123;-72
2023/09/20 05:43:51;;;;;;;5.50;1.90;;;17.90;99.90;;;;;;4175486;28;20647;-73
2023/09/20 05:45:52;;;;;;;2.25;1.30;;;17.90;99.90;;;;;;4172369;28;20064;-72
2023/09/20 05:47:54;;;;;;;4.10;1.70;;;17.90;99.90;;;;;;4173234;28;20037;-73
2023/09/20 05:49:56;;;;;;;4.40;1.63;;;18.00;99.90;;;;;;4181745;28;20041;-73
2023/09/20 05:51:57;;;;;;;3.42;1.60;;;18.00;99.90;;;;;;4181379;28;20041;-71
2023/09/20 05:53:58;;;;;;;3.42;1.60;;;18.00;99.90;;;;;;4184290;28;20040;-71
2023/09/20 05:56:05;;;;;;;6.50;2.05;;;18.00;99.90;;;;;;4177774;28;20029;-72
2023/09/20 05:58:06;;;;;;;4.38;1.67;;;18.00;99.90;;;;;;4186157;28;20036;-72
2023/09/20 06:00:18;;;;;;;3.28;1.60;;;18.00;99.90;;;;;;4176521;28;20035;-70
2023/09/20 06:02:18;;;;;;;4.40;2.10;;;18.00;99.90;;;;;;4192639;28;20039;-72
2023/09/20 06:04:19;;;;;;;2.10;1.45;;;18.00;99.90;;;;;;4183217;28;20039;-72
2023/09/20 06:06:19;;;;;;;8.50;2.25;;;18.00;99.90;;;;;;4178418;28;20090;-71
2023/09/20 06:08:20;;;;;;;3.13;1.60;;;18.00;99.90;;;;;;4177147;28;20483;-72
2023/09/20 06:10:22;;;;;;;2.58;1.58;;;18.00;99.90;;;;;;4184137;28;20037;-72
2023/09/20 06:12:23;;;;;;;2.17;1.53;;;18.00;99.90;;;;;;4190764;28;22832;-73
2023/09/20 06:14:24;;;;;;;2.95;1.60;;;18.10;99.90;;;;;;4184335;28;20290;-73
2023/09/20 06:16:25;;;;;;;6.68;2.22;;;18.10;99.90;;;;;;4173811;28;20044;-70
2023/09/20 06:18:25;;;;;;;3.20;1.73;;;18.00;99.90;;;;;;4176653;28;20104;-71
2023/09/20 06:20:27;;;;;;;5.00;2.28;;;18.10;99.90;;;;;;4181115;28;20074;-67
2023/09/20 06:22:29;;;;;;;4.43;2.53;;;18.10;99.90;;;;;;4189123;28;20393;-68
2023/09/20 06:24:30;;;;;;;5.53;2.33;;;18.10;99.90;;;;;;4188478;28;20033;-68
2023/09/20 06:26:30;;;;;;;7.97;2.25;;;18.20;99.90;;;;;;4180880;28;20363;-68
2023/09/20 06:28:32;;;;;;;6.82;2.70;;;18.30;99.90;;;;;;4189810;28;20034;-67
2023/09/20 06:30:33;;;;;;;6.83;2.33;;;18.50;99.90;;;;;;4179316;28;20482;-68
2023/09/20 06:32:34;;;;;;;7.35;2.90;;;18.60;99.90;;;;;;4177683;28;20056;-67
2023/09/20 06:34:34;;;;;;;2.97;2.17;;;18.80;99.90;;;;;;4177739;28;20123;-68
2023/09/20 06:36:35;;;;;;;4.30;2.50;;;18.90;99.90;;;;;;4179742;28;20037;-67
2023/09/20 06:38:35;;;;;;;5.82;2.35;;;19.10;99.90;;;;;;4179292;28;20372;-68
2023/09/20 06:40:39;;;;;;;8.40;2.40;;;19.20;99.90;;;;;;4180091;28;20025;-67
2023/09/20 06:42:40;;;;;;;3.95;2.08;;;19.40;99.90;;;;;;4185888;28;20494;-68
2023/09/20 06:44:44;;;;;;;5.45;1.80;;;19.40;99.90;;;;;;4190128;28;20072;-68
2023/09/20 06:46:45;;;;;;;6.78;2.28;;;19.50;99.90;;;;;;4186773;28;20040;-68
2023/09/20 06:48:45;;;;;;;3.53;1.90;;;19.50;99.90;;;;;;4190334;28;20406;-68
2023/09/20 06:50:48;;;;;;;4.13;1.63;;;19.60;99.90;;;;;;4185117;28;20222;-67
2023/09/20 06:52:48;;;;;;;5.60;1.70;;;19.70;99.90;;;;;;4191789;28;20043;-68
2023/09/20 06:54:49;;;;;;;3.85;2.00;;;19.80;99.90;;;;;;4193342;28;20484;-68
2023/09/20 06:56:50;;;;;;;4.55;2.00;;;19.80;99.90;;;;;;4177531;28;20048;-68
2023/09/20 06:58:52;;;;;;;3.30;1.70;;;19.80;99.90;;;;;;4183070;28;20510;-68
2023/09/20 07:00:53;;;;;;;5.50;2.30;;;19.90;99.90;;;;;;4182895;28;20031;-68
2023/09/20 07:02:55;;;;;;;5.78;2.03;;;20.00;99.90;;;;;;4184914;28;20772;-68
2023/09/20 07:04:56;;;;;;;;;;;20.10;99.90;;;;;;4179119;28;20079;-68
2023/09/20 07:06:57;;;;;;;6.60;1.88;;;20.20;99.90;;;;;;4178251;28;20324;-68
2023/09/20 07:08:58;;;;;;;6.25;2.08;;;20.30;99.90;;;;;;4181131;28;20050;-68
2023/09/20 07:10:58;;;;;;;4.55;2.03;;;20.50;99.90;;;;;;4189502;28;20064;-68
2023/09/20 07:13:00;;;;;;;3.58;1.98;;;20.50;99.90;;;;;;4191717;28;20037;-68
2023/09/20 07:15:05;;;;;;;3.70;2.10;;;20.70;99.90;;;;;;4178727;28;20025;-68
2023/09/20 07:17:07;;;;;;;8.00;2.30;;;20.80;99.90;;;;;;4176661;28;20352;-68
2023/09/20 07:19:11;;;;;;;4.80;2.05;;;21.00;99.90;;;;;;4180802;28;20067;-68
2023/09/20 07:21:14;;;;;;;4.88;2.40;;;21.10;99.90;;;;;;4184975;28;20501;-68
2023/09/20 07:23:15;;;;;;;6.30;2.53;;;21.10;99.90;;;;;;4194513;28;20489;-67
2023/09/20 07:25:19;;;;;;;4.40;2.10;;;21.30;99.90;;;;;;4193052;28;20043;-68
2023/09/20 07:27:20;;;;;;;4.35;1.73;;;21.40;99.90;;;;;;4179343;28;20079;-68
2023/09/20 07:29:21;;;;;;;3.53;1.50;;;21.50;99.90;;;;;;4180833;28;20467;-69
2023/09/20 07:31:22;;;;;;;4.43;2.05;;;21.70;99.90;;;;;;4175530;28;20032;-72
2023/09/20 07:33:29;;;;;;;3.42;2.00;;;21.80;99.90;;;;;;4178957;28;20029;-73
2023/09/20 07:35:39;;;;;;;3.38;1.60;;;22.00;99.90;;;;;;4176077;28;20037;-72
2023/09/20 07:37:43;;;;;;;6.82;1.90;;;22.10;99.90;;;;;;4175149;28;20375;-73
2023/09/20 07:39:46;;;;;;;4.60;1.80;;;22.10;99.90;;;;;;4180558;28;20029;-73
2023/09/20 07:41:50;;;;;;;6.18;2.10;;;22.30;99.90;;;;;;4182098;28;20079;-72
2023/09/20 07:43:53;;;;;;;15.48;2.67;;;22.30;99.90;;;;;;4194116;28;20029;-73
2023/09/20 07:45:54;;;;;;;3.78;1.80;;;22.30;99.90;;;;;;4194075;28;20060;-72
2023/09/20 07:47:55;;;;;;;5.65;1.92;;;22.20;99.90;;;;;;4179374;28;20044;-72
2023/09/20 07:49:55;;;;;;;7.50;1.92;;;22.30;99.90;;;;;;4183144;28;20067;-72
2023/09/20 07:51:56;;;;;;;4.53;1.95;;;22.30;99.90;;;;;;4180467;28;20036;-68
2023/09/20 07:53:58;;;;;;;5.03;2.22;;;22.20;99.90;;;;;;4178421;28;20039;-69
2023/09/20 07:56:06;;;;;;;5.28;1.90;;;22.10;99.90;;;;;;4178062;28;20033;-68
2023/09/20 07:58:07;;;;;;;3.45;1.80;;;22.00;99.90;;;;;;4181060;28;20079;-68
2023/09/20 08:00:10;;;;;;;5.05;1.65;;;22.00;99.90;;;;;;4187065;28;20038;-68
2023/09/20 08:02:17;;;;;;;3.03;1.58;;;22.00;99.90;;;;;;4190761;28;20060;-68
2023/09/20 08:04:18;;;;;;;4.97;1.50;;;22.10;99.90;;;;;;4190767;28;20035;-68
2023/09/20 08:06:20;;;;;;;3.70;1.80;;;22.10;99.90;;;;;;4176493;28;20344;-69
2023/09/20 08:08:21;;;;;;;6.23;1.67;;;22.20;99.90;;;;;;4177731;28;20029;-69
2023/09/20 08:10:21;;;;;;;6.63;1.85;;;22.20;99.90;;;;;;4185164;28;20279;-69
2023/09/20 08:12:22;;;;;;;4.18;1.77;;;22.30;99.90;;;;;;4184248;28;20120;-69
2023/09/20 08:14:24;;;;;;;4.15;1.90;;;22.40;99.90;;;;;;4184682;28;20024;-69
2023/09/20 08:16:31;;;;;;;3.95;1.85;;;22.50;99.90;;;;;;4185095;28;20510;-69
2023/09/20 08:20:51;;;;;;;4.30;2.08;;;22.30;99.90;;;;;;4182044;28;20063;-68
2023/09/20 09:00:19;;;;;;;3.97;1.88;;;21.50;99.90;;;;;;4175770;28;20126;-68
2023/09/20 09:02:24;;;;;;;3.08;1.70;;;21.50;99.90;;;;;;4179626;28;20053;-73
2023/09/20 09:04:25;;;;;;;5.10;1.95;;;21.50;99.90;;;;;;4175631;28;20041;-72
2023/09/20 09:06:27;;;;;;;2.00;1.20;;;21.50;99.90;;;;;;4185279;28;20047;-72
2023/09/20 09:08:28;;;;;;;3.97;1.77;;;21.60;99.90;;;;;;4182376;28;20033;-71
2023/09/20 09:10:29;;;;;;;3.47;1.60;;;21.60;99.90;;;;;;4179487;28;20450;-72
2023/09/20 09:12:29;;;;;;;5.18;2.08;;;21.60;99.90;;;;;;4181035;28;20057;-72
2023/09/20 09:14:31;;;;;;;3.78;1.75;;;21.60;99.90;;;;;;4184239;28;20040;-72
2023/09/20 09:16:35;;;;;;;5.63;2.08;;;21.80;99.90;;;;;;4176951;28;20087;-72
2023/09/20 09:18:38;;;;;;;4.80;1.98;;;21.70;99.90;;;;;;4174340;28;20474;-68
2023/09/20 09:20:39;;;;;;;4.60;1.80;;;21.70;99.90;;;;;;4178819;28;20517;-72
2023/09/20 09:22:45;;;;;;;3.67;1.83;;;21.50;99.90;;;;;;4170985;28;20033;-71
2023/09/20 09:24:47;;;;;;;2.15;1.40;;;21.60;99.90;;;;;;4183102;28;20080;-71
2023/09/20 09:26:48;;;;;;;4.47;1.95;;;21.60;99.90;;;;;;4184566;28;20108;-72
2023/09/20 09:28:49;;;;;;;4.95;1.98;;;21.60;99.90;;;;;;4183078;28;20029;-73
2023/09/20 09:30:51;;;;;;;3.17;1.70;;;21.60;99.90;;;;;;4177950;28;20124;-73
2023/09/20 09:32:52;;;;;;;4.95;1.75;;;21.60;99.90;;;;;;4184045;28;20471;-72
2023/09/20 09:34:53;;;;;;;4.40;1.73;;;21.70;99.90;;;;;;4185540;28;20055;-73
2023/09/20 09:36:54;;;;;;;3.00;1.90;;;21.70;99.90;;;;;;4181670;28;20527;-71
2023/09/20 09:39:14;;;;;;;3.10;1.42;;;21.70;99.90;;;;;;4179175;28;20041;-72
2023/09/20 09:41:15;;;;;;;3.90;2.00;;;21.70;99.90;;;;;;4180948;28;20074;-73
2023/09/20 09:43:16;;;;;;;4.18;1.63;;;21.80;99.90;;;;;;4190977;28;20044;-73
2023/09/20 09:45:33;;;;;;;3.30;1.50;;;21.70;99.90;;;;;;4189383;28;20048;-72
2023/09/20 09:47:35;;;;;;;3.13;1.38;;;21.70;99.90;;;;;;4186384;28;20103;-70
2023/09/20 09:49:37;;;;;;;3.53;1.67;;;21.80;99.90;;;;;;4179953;28;20033;-70
2023/09/20 09:51:45;;;;;;;6.30;1.80;;;21.80;99.90;;;;;;4175042;28;20486;-68
2023/09/20 09:53:49;;;;;;;3.22;1.45;;;21.80;99.90;;;;;;4175562;28;20033;-68
2023/09/20 09:55:51;;;;;;;3.25;1.70;;;21.90;99.90;;;;;;4175964;28;20112;-68
2023/09/20 09:57:52;;;;;;;1.67;1.08;;;21.90;99.90;;;;;;4186710;28;20386;-69
2023/09/20 09:59:53;;;;;;;3.13;1.23;;;21.90;99.90;;;;;;4164441;28;20021;-68
2023/09/20 10:01:55;;;;;;;2.75;1.20;;;22.00;99.90;;;;;;4180885;28;20075;-69
2023/09/20 10:04:05;;;;;;;7.07;1.40;;;22.00;99.90;;;;;;4186040;28;21441;-68
2023/09/20 10:06:09;;;;;;;6.15;1.48;;;22.00;99.90;;;;;;4165041;28;20151;-69
2023/09/20 10:08:13;;;;;;;2.85;1.33;;;22.10;99.90;;;;;;4182778;28;20390;-68
2023/09/20 10:10:16;;;;;;;1.63;0.88;;;22.10;99.90;;;;;;4179094;28;20029;-65
2023/09/20 10:12:18;;;;;;;;;;;22.10;99.90;;;;;;4190412;28;20387;-72
2023/09/20 10:14:22;;;;;;;2.00;1.25;;;22.20;99.90;;;;;;4174850;28;20382;-73
2023/09/20 10:16:24;;;;;;;1.52;1.00;;;22.20;99.90;;;;;;4184420;28;20115;-73
2023/09/20 10:18:31;;;;;;;1.17;1.02;;;22.20;99.90;;;;;;4188357;28;20033;-71
2023/09/20 10:21:10;;;;;;;1.52;1.13;;;22.10;99.90;;;;;;4183257;28;20029;-72
2023/09/20 10:23:11;;;;;;;2.38;1.15;;;22.10;99.90;;;;;;4175255;28;20123;-73
2023/09/20 10:25:36;;;;;;;3.33;1.20;;;22.10;99.90;;;;;;4189100;28;20564;-72
2023/09/20 10:27:38;;;;;;;2.22;1.00;;;22.10;99.90;;;;;;4190628;28;20508;-68
2023/09/20 10:29:39;;;;;;;2.65;1.23;;;22.10;99.90;;;;;;4184624;28;20021;-72
2023/09/20 10:31:40;;;;;;;1.40;0.82;;;22.20;99.90;;;;;;4180489;28;20032;-70
2023/09/20 10:33:47;;;;;;;2.00;0.90;;;22.30;99.90;;;;;;4180628;28;20029;-72
2023/09/20 10:35:50;;;;;;;2.42;1.05;;;22.30;99.90;;;;;;4181145;28;20021;-72
2023/09/20 10:38:09;;;;;;;1.70;0.90;;;22.30;99.90;;;;;;4166408;28;20029;-72
2023/09/20 10:40:11;;;;;;;1.67;0.98;;;22.40;99.90;;;;;;4178785;28;20494;-72
2023/09/20 10:42:13;;;;;;;2.58;1.10;;;22.50;99.90;;;;;;4165323;28;20364;-73
2023/09/20 10:47:09;;;;;;;2.80;1.30;;;22.60;99.90;;;;;;4178775;28;20052;-72
2023/09/20 10:49:10;;;;;;;2.85;1.25;;;22.60;99.90;;;;;;4178565;28;20048;-65
2023/09/20 10:51:11;;;;;;;2.38;1.05;;;22.60;99.90;;;;;;4182816;28;20040;-65
2023/09/20 10:53:12;;;;;;;2.38;0.98;;;22.70;99.90;;;;;;4184490;28;20524;-65
2023/09/20 10:55:36;;;;;;;2.25;1.00;;;22.70;99.90;;;;;;4183503;28;20044;-66
2023/09/20 10:57:42;;;;;;;3.17;0.80;;;22.70;99.90;;;;;;4179882;28;20119;-67
2023/09/20 10:59:45;;;;;;;4.38;1.33;;;22.70;99.90;;;;;;4184368;28;20037;-66
2023/09/20 11:01:55;;;;;;;2.03;1.10;;;22.80;99.90;;;;;;4178237;28;20040;-67
2023/09/20 11:03:57;;;;;;;2.20;1.00;;;22.90;99.90;;;;;;4184355;28;20040;-65
2023/09/20 11:05:58;;;;;;;2.28;1.58;;;23.00;99.90;;;;;;4186405;28;20045;-65
2023/09/20 11:08:11;;;;;;;2.10;1.40;;;23.00;99.90;;;;;;4185117;28;20252;-66
2023/09/20 11:10:13;;;;;;;1.02;0.70;;;23.00;99.90;;;;;;4182869;28;20056;-66
2023/09/20 11:12:14;;;;;;;5.20;1.20;;;23.10;99.90;;;;;;4181292;28;20393;-65
2023/09/20 11:14:14;;;;;;;2.97;1.27;;;23.10;99.90;;;;;;4187048;28;20033;-65
2023/09/20 11:16:19;;;;;;;3.45;1.20;;;23.10;99.90;;;;;;4183442;28;20038;-66
2023/09/20 11:18:19;;;;;;;2.90;1.20;;;23.10;99.90;;;;;;4183306;28;20131;-65
2023/09/20 11:20:20;;;;;;;2.85;1.00;;;23.10;99.90;;;;;;4178875;28;20401;-68